Time;durP1;ratioP1;P1;durP2;ratioP2;P2;SDS_P1;SDS_P2;PMS_P1;PMS_P2;Temp;Humidity;BMP_temperature;BMP_pressure;BME280_temperature;BME280_humidity;BME280_pressure;Samples;Min_cycle;Max_cycle;Signal;HPM_P1;HPM_P2
2022/01/31 00:01:17;;;;;;;22.17;5.78;;;;;;;;;;4992649;28;20053;-95
2022/01/31 00:03:43;;;;;;;19.55;5.65;;;;;;;;;;5007890;28;20045;-95
2022/01/31 00:06:09;;;;;;;23.13;5.55;;;;;;;;;;4991004;28;20034;-94
2022/01/31 00:08:35;;;;;;;15.50;5.03;;;;;;;;;;4991665;28;20038;-95
2022/01/31 00:11:01;;;;;;;18.23;5.50;;;;;;;;;;4976914;28;20094;-95
2022/01/31 00:13:41;;;;;;;18.75;5.70;;;;;;;;;;4973402;28;20065;-95
2022/01/31 00:16:09;;;;;;;22.90;6.50;;;;;;;;;;4974474;28;20042;-94
2022/01/31 00:18:36;;;;;;;18.33;5.25;;;;;;;;;;4975208;28;20133;-94
2022/01/31 00:21:02;;;;;;;16.67;5.60;;;;;;;;;;4974411;28;20050;-95
2022/01/31 00:23:28;;;;;;;23.50;5.57;;;;;;;;;;4968239;28;20073;-94
2022/01/31 00:25:54;;;;;;;16.85;4.95;;;;;;;;;;4977518;28;20114;-96
2022/01/31 00:28:20;;;;;;;17.08;4.97;;;;;;;;;;4974003;28;20425;-94
2022/01/31 00:30:47;;;;;;;17.58;5.30;;;;;;;;;;4991227;28;20042;-95
2022/01/31 00:33:13;;;;;;;19.20;5.47;;;;;;;;;;4974599;28;20561;-94
2022/01/31 00:35:39;;;;;;;19.95;6.00;;;;;;;;;;4967602;28;20042;-95
2022/01/31 00:38:06;;;;;;;16.38;5.93;;;;;;;;;;4970362;28;20035;-90
2022/01/31 00:40:34;;;;;;;26.48;5.88;;;;;;;;;;4968737;28;20038;-94
2022/01/31 00:43:00;;;;;;;21.52;6.72;;;;;;;;;;4967745;28;20045;-94
2022/01/31 00:45:29;;;;;;;21.98;6.95;;;;;;;;;;4967562;28;20092;-94
2022/01/31 00:48:03;;;;;;;27.98;7.10;;;;;;;;;;4986232;28;20049;-88
2022/01/31 00:50:38;;;;;;;22.33;6.93;;;;;;;;;;4971378;28;20042;-95
2022/01/31 00:53:04;;;;;;;16.75;7.15;;;;;;;;;;4969839;28;20545;-94
2022/01/31 00:55:31;;;;;;;21.92;7.57;;;;;;;;;;4968092;28;20128;-94
2022/01/31 00:57:57;;;;;;;21.15;7.30;;;;;;;;;;4967465;28;20045;-93
2022/01/31 01:00:23;;;;;;;21.75;7.72;;;;;;;;;;4969649;28;20077;-94
2022/01/31 01:02:49;;;;;;;16.98;7.47;;;;;;;;;;4983826;28;20079;-95
2022/01/31 01:05:16;;;;;;;20.63;7.63;;;;;;;;;;4989620;28;20026;-93
2022/01/31 01:07:46;;;;;;;21.08;8.63;;;;;;;;;;4987858;28;20038;-93
2022/01/31 01:10:15;;;;;;;20.85;8.15;;;;;;;;;;4998359;28;20495;-94
2022/01/31 01:12:47;;;;;;;23.27;8.63;;;;;;;;;;5010191;28;20516;-94
2022/01/31 01:15:14;;;;;;;17.15;8.63;;;;;;;;;;5021751;28;20094;-91
2022/01/31 01:17:41;;;;;;;23.70;9.50;;;;;;;;;;5020008;28;20186;-94
2022/01/31 01:20:07;;;;;;;25.27;9.80;;;;;;;;;;5004080;28;20127;-93
2022/01/31 01:22:33;;;;;;;21.27;9.90;;;;;;;;;;5000187;28;20501;-93
2022/01/31 01:25:03;;;;;;;25.35;10.20;;;;;;;;;;5018018;28;20132;-92
2022/01/31 01:27:29;;;;;;;24.55;10.90;;;;;;;;;;5016598;28;20121;-89
2022/01/31 01:29:56;;;;;;;24.65;10.75;;;;;;;;;;4999532;28;20041;-94
2022/01/31 01:32:24;;;;;;;27.15;11.25;;;;;;;;;;5016570;28;20088;-92
2022/01/31 01:34:50;;;;;;;28.27;11.35;;;;;;;;;;5014339;28;20049;-91
2022/01/31 01:37:18;;;;;;;24.63;11.82;;;;;;;;;;4999501;28;20404;-91
2022/01/31 01:39:46;;;;;;;30.30;12.68;;;;;;;;;;5008386;28;20041;-87
2022/01/31 01:42:12;;;;;;;24.92;12.10;;;;;;;;;;5002622;28;20049;-89
2022/01/31 01:44:43;;;;;;;28.58;13.00;;;;;;;;;;4993005;28;20073;-87
2022/01/31 01:47:10;;;;;;;31.58;14.50;;;;;;;;;;4986847;28;20063;-85
2022/01/31 01:49:36;;;;;;;29.52;15.40;;;;;;;;;;4993540;28;20456;-85
2022/01/31 01:52:02;;;;;;;31.98;15.95;;;;;;;;;;4985180;28;20038;-84
2022/01/31 01:54:29;;;;;;;36.25;16.92;;;;;;;;;;5009299;28;20033;-83
2022/01/31 01:56:55;;;;;;;30.27;15.82;;;;;;;;;;4995795;28;20052;-83
2022/01/31 01:59:21;;;;;;;31.52;16.45;;;;;;;;;;5006718;28;20410;-84
2022/01/31 02:01:47;;;;;;;29.45;15.98;;;;;;;;;;5009673;28;20112;-82
2022/01/31 02:04:13;;;;;;;36.28;18.20;;;;;;;;;;4985006;28;20394;-83
2022/01/31 02:06:40;;;;;;;30.98;17.10;;;;;;;;;;5008774;28;20049;-81
2022/01/31 02:09:06;;;;;;;32.88;17.95;;;;;;;;;;4992784;28;20485;-81
2022/01/31 02:11:32;;;;;;;35.15;18.77;;;;;;;;;;4991945;28;20060;-82
2022/01/31 02:13:59;;;;;;;33.63;18.75;;;;;;;;;;5007549;28;20138;-84
2022/01/31 02:16:25;;;;;;;36.28;18.83;;;;;;;;;;4992465;28;20532;-85
2022/01/31 02:18:53;;;;;;;32.92;19.08;;;;;;;;;;5006997;28;20342;-82
2022/01/31 02:21:19;;;;;;;37.30;19.70;;;;;;;;;;4986282;28;20034;-82
2022/01/31 02:23:45;;;;;;;36.92;18.83;;;;;;;;;;5009786;28;20084;-83
2022/01/31 02:26:12;;;;;;;32.80;20.05;;;;;;;;;;4989652;28;20041;-84
2022/01/31 02:28:39;;;;;;;31.48;19.23;;;;;;;;;;4991875;28;20041;-84
2022/01/31 02:31:06;;;;;;;33.75;20.13;;;;;;;;;;5000812;28;20037;-83
2022/01/31 02:33:32;;;;;;;32.53;20.20;;;;;;;;;;5008100;28;20038;-83
2022/01/31 02:36:00;;;;;;;31.15;20.23;;;;;;;;;;4987533;28;20037;-83
2022/01/31 02:38:27;;;;;;;34.50;21.77;;;;;;;;;;4987891;28;20564;-83
2022/01/31 02:40:53;;;;;;;31.00;19.50;;;;;;;;;;4991773;28;20073;-83
2022/01/31 02:43:20;;;;;;;37.05;21.23;;;;;;;;;;4986286;28;20036;-84
2022/01/31 02:45:47;;;;;;;34.88;21.52;;;;;;;;;;5008380;28;20060;-83
2022/01/31 02:48:15;;;;;;;34.22;22.15;;;;;;;;;;4990888;28;20046;-83
2022/01/31 02:50:41;;;;;;;34.80;22.67;;;;;;;;;;5006869;28;20049;-84
2022/01/31 02:53:12;;;;;;;35.33;22.23;;;;;;;;;;4985221;28;20037;-83
2022/01/31 02:55:40;;;;;;;38.10;22.73;;;;;;;;;;4992053;28;20088;-84
2022/01/31 02:58:07;;;;;;;35.67;21.73;;;;;;;;;;4984988;28;20488;-84
2022/01/31 03:00:33;;;;;;;37.97;21.83;;;;;;;;;;4991822;28;20041;-83
2022/01/31 03:02:59;;;;;;;33.10;21.23;;;;;;;;;;4991487;28;20038;-84
2022/01/31 03:05:26;;;;;;;32.88;21.52;;;;;;;;;;5007924;28;20096;-83
2022/01/31 03:07:52;;;;;;;30.50;20.45;;;;;;;;;;4991191;28;20037;-83
2022/01/31 03:10:18;;;;;;;30.67;19.67;;;;;;;;;;4991515;28;20100;-84
2022/01/31 03:12:44;;;;;;;32.90;20.10;;;;;;;;;;5000665;28;20092;-84
2022/01/31 03:15:10;;;;;;;35.03;20.30;;;;;;;;;;5005291;28;20045;-84
2022/01/31 03:17:38;;;;;;;28.17;18.65;;;;;;;;;;4994636;28;20060;-87
2022/01/31 03:20:05;;;;;;;28.65;16.85;;;;;;;;;;4988396;28;20441;-84
2022/01/31 03:22:32;;;;;;;25.25;15.55;;;;;;;;;;5001016;28;20099;-83
2022/01/31 03:24:58;;;;;;;25.48;15.88;;;;;;;;;;4988781;28;20124;-84
2022/01/31 03:27:25;;;;;;;32.40;16.92;;;;;;;;;;4995145;28;20042;-84
2022/01/31 03:29:54;;;;;;;24.65;17.13;;;;;;;;;;5012122;28;20589;-84
2022/01/31 03:32:20;;;;;;;27.00;15.52;;;;;;;;;;4991247;28;20112;-84
2022/01/31 03:34:46;;;;;;;27.42;15.70;;;;;;;;;;4987060;28;20038;-84
2022/01/31 03:37:12;;;;;;;30.85;16.02;;;;;;;;;;5013312;28;20046;-87
2022/01/31 03:39:39;;;;;;;29.50;17.33;;;;;;;;;;4986822;28;20053;-85
2022/01/31 03:42:05;;;;;;;32.70;18.25;;;;;;;;;;5007644;28;20401;-85
2022/01/31 03:44:31;;;;;;;35.72;17.52;;;;;;;;;;5010630;28;20079;-85
2022/01/31 03:46:58;;;;;;;32.85;18.02;;;;;;;;;;4984441;28;20121;-84
2022/01/31 03:49:24;;;;;;;36.40;19.55;;;;;;;;;;4995696;28;20033;-85
2022/01/31 03:51:50;;;;;;;29.17;16.08;;;;;;;;;;5005767;28;20045;-83
2022/01/31 03:54:17;;;;;;;31.45;16.40;;;;;;;;;;5017820;28;20132;-83
2022/01/31 03:56:43;;;;;;;30.98;16.45;;;;;;;;;;5015345;28;20049;-83
2022/01/31 03:59:09;;;;;;;33.95;17.13;;;;;;;;;;5013066;28;20049;-83
2022/01/31 04:01:35;;;;;;;32.67;15.70;;;;;;;;;;4981297;28;20068;-83
2022/01/31 04:04:02;;;;;;;43.47;17.25;;;;;;;;;;4992931;28;20095;-84
2022/01/31 04:06:28;;;;;;;32.90;15.65;;;;;;;;;;4984812;28;20071;-83
2022/01/31 04:08:54;;;;;;;36.03;13.38;;;;;;;;;;4997649;28;20069;-86
2022/01/31 04:11:20;;;;;;;37.85;13.98;;;;;;;;;;4970930;28;20058;-83
2022/01/31 04:13:47;;;;;;;35.55;11.30;;;;;;;;;;4986247;28;20042;-86
2022/01/31 04:16:13;;;;;;;32.42;7.85;;;;;;;;;;4979762;28;20470;-87
2022/01/31 04:18:39;;;;;;;24.75;8.90;;;;;;;;;;4961598;28;20129;-84
2022/01/31 04:21:05;;;;;;;25.80;8.10;;;;;;;;;;4978089;28;20039;-87
2022/01/31 04:23:33;;;;;;;28.83;7.53;;;;;;;;;;4978143;28;20482;-87
2022/01/31 04:26:08;;;;;;;23.60;7.10;;;;;;;;;;4972551;28;20042;-83
2022/01/31 04:28:46;;;;;;;22.58;7.28;;;;;;;;;;4972646;28;20038;-84
2022/01/31 04:33:46;;;;;;;25.92;6.63;;;;;;;;;;4994812;28;20129;-88
2022/01/31 04:36:15;;;;;;;29.35;6.85;;;;;;;;;;4979542;28;20049;-83
2022/01/31 04:38:42;;;;;;;22.17;5.22;;;;;;;;;;4981802;28;20049;-87
2022/01/31 04:41:08;;;;;;;16.58;3.60;;;;;;;;;;4968830;28;20113;-86
2022/01/31 04:43:34;;;;;;;15.18;3.65;;;;;;;;;;4985832;28;20100;-90
2022/01/31 04:46:03;;;;;;;12.00;2.95;;;;;;;;;;4961349;28;20122;-86
2022/01/31 04:48:30;;;;;;;20.83;4.93;;;;;;;;;;4972361;28;20038;-84
2022/01/31 04:50:56;;;;;;;15.50;4.07;;;;;;;;;;4967507;28;20054;-83
2022/01/31 04:53:22;;;;;;;11.60;3.13;;;;;;;;;;4965235;28;20042;-83
2022/01/31 04:55:48;;;;;;;13.65;3.05;;;;;;;;;;4973131;28;20042;-83
2022/01/31 04:58:14;;;;;;;15.70;3.50;;;;;;;;;;4975916;28;20080;-83
2022/01/31 05:00:41;;;;;;;16.95;3.58;;;;;;;;;;4968783;28;20121;-83
2022/01/31 05:03:16;;;;;;;19.95;4.13;;;;;;;;;;4983176;28;20486;-86
2022/01/31 05:05:43;;;;;;;18.70;4.57;;;;;;;;;;4961227;28;20121;-83
2022/01/31 05:08:10;;;;;;;16.05;3.72;;;;;;;;;;4971881;28;20146;-84
2022/01/31 05:10:42;;;;;;;23.20;4.65;;;;;;;;;;4972283;28;20548;-83
2022/01/31 05:13:09;;;;;;;18.55;3.70;;;;;;;;;;4997098;28;20493;-83
2022/01/31 05:15:35;;;;;;;18.88;4.38;;;;;;;;;;5008883;28;20073;-84
2022/01/31 05:18:01;;;;;;;21.70;5.05;;;;;;;;;;5012862;28;20045;-83
2022/01/31 05:20:27;;;;;;;21.05;4.45;;;;;;;;;;5007234;28;20049;-86
2022/01/31 05:22:53;;;;;;;19.52;4.70;;;;;;;;;;5012153;28;20052;-85
2022/01/31 05:25:19;;;;;;;20.17;4.35;;;;;;;;;;5007276;28;20077;-85
2022/01/31 05:27:45;;;;;;;20.38;4.20;;;;;;;;;;5011903;28;20042;-83
2022/01/31 05:30:12;;;;;;;14.38;3.03;;;;;;;;;;5014418;28;20501;-88
2022/01/31 05:32:38;;;;;;;18.48;3.08;;;;;;;;;;4990464;28;20042;-89
2022/01/31 05:35:05;;;;;;;17.67;3.03;;;;;;;;;;5007018;28;20052;-91
2022/01/31 05:37:31;;;;;;;12.35;2.20;;;;;;;;;;4993926;28;20038;-88
2022/01/31 05:39:58;;;;;;;13.50;1.88;;;;;;;;;;5005130;28;20127;-84
2022/01/31 05:42:24;;;;;;;8.20;2.05;;;;;;;;;;5009186;28;20038;-83
2022/01/31 05:44:50;;;;;;;6.63;1.80;;;;;;;;;;4993121;28;20038;-84
2022/01/31 05:47:17;;;;;;;6.07;1.40;;;;;;;;;;4993129;28;20038;-83
2022/01/31 05:49:43;;;;;;;10.95;2.55;;;;;;;;;;4988756;28;20041;-84
2022/01/31 05:52:09;;;;;;;8.20;1.70;;;;;;;;;;4986254;28;20041;-83
2022/01/31 05:54:36;;;;;;;7.93;1.98;;;;;;;;;;4992645;28;20041;-84
2022/01/31 05:57:03;;;;;;;6.80;1.90;;;;;;;;;;5009086;28;20049;-85
2022/01/31 05:59:30;;;;;;;9.93;1.65;;;;;;;;;;5005697;28;20401;-86
2022/01/31 06:01:58;;;;;;;12.02;2.35;;;;;;;;;;5008968;28;20054;-83
2022/01/31 06:04:24;;;;;;;13.88;2.10;;;;;;;;;;5009003;28;20057;-84
2022/01/31 06:06:51;;;;;;;10.20;1.92;;;;;;;;;;5011161;28;20045;-84
2022/01/31 06:09:17;;;;;;;7.65;1.55;;;;;;;;;;4991358;28;20038;-84
2022/01/31 06:11:45;;;;;;;8.93;1.95;;;;;;;;;;5009693;28;20069;-85
2022/01/31 06:14:11;;;;;;;8.98;1.88;;;;;;;;;;5007342;28;20045;-83
2022/01/31 06:16:43;;;;;;;10.63;1.77;;;;;;;;;;4992003;28;20054;-85
2022/01/31 06:19:10;;;;;;;11.45;2.05;;;;;;;;;;4986011;28;20045;-83
2022/01/31 06:21:36;;;;;;;15.15;2.50;;;;;;;;;;5008459;28;20422;-83
2022/01/31 06:24:03;;;;;;;15.68;2.53;;;;;;;;;;4987288;28;20401;-85
2022/01/31 06:26:29;;;;;;;12.38;2.20;;;;;;;;;;5005569;28;20490;-84
2022/01/31 06:28:56;;;;;;;9.25;2.42;;;;;;;;;;5008118;28;20034;-85
2022/01/31 06:31:22;;;;;;;15.10;2.15;;;;;;;;;;4987306;28;20529;-84
2022/01/31 06:33:48;;;;;;;14.90;2.22;;;;;;;;;;5008299;28;20042;-83
2022/01/31 06:36:14;;;;;;;15.02;2.75;;;;;;;;;;4990241;28;20530;-83
2022/01/31 06:38:40;;;;;;;14.57;3.03;;;;;;;;;;5006604;28;20124;-83
2022/01/31 06:41:11;;;;;;;11.93;2.20;;;;;;;;;;5002865;28;20069;-83
2022/01/31 06:43:38;;;;;;;14.02;2.42;;;;;;;;;;4992476;28;20412;-85
2022/01/31 06:46:04;;;;;;;14.20;2.92;;;;;;;;;;4986070;28;20397;-84
2022/01/31 06:48:30;;;;;;;12.57;2.20;;;;;;;;;;5008210;28;20108;-83
2022/01/31 06:50:56;;;;;;;18.48;2.47;;;;;;;;;;4990345;28;20065;-83
2022/01/31 06:53:27;;;;;;;10.27;2.08;;;;;;;;;;4985905;28;20037;-84
2022/01/31 06:55:53;;;;;;;12.45;1.90;;;;;;;;;;4985039;28;20426;-83
2022/01/31 06:58:20;;;;;;;11.77;2.00;;;;;;;;;;4999286;28;20049;-85
2022/01/31 07:00:46;;;;;;;11.95;2.83;;;;;;;;;;4985105;28;20038;-83
2022/01/31 07:03:13;;;;;;;7.68;1.90;;;;;;;;;;4987502;28;20042;-86
2022/01/31 07:05:42;;;;;;;9.52;1.70;;;;;;;;;;5004312;28;20038;-87
2022/01/31 07:08:09;;;;;;;10.85;1.88;;;;;;;;;;5001010;28;20418;-84
2022/01/31 07:10:37;;;;;;;8.98;1.70;;;;;;;;;;5003869;28;20523;-85
2022/01/31 07:13:11;;;;;;;9.07;1.55;;;;;;;;;;4986210;28;20527;-85
2022/01/31 07:15:38;;;;;;;11.18;1.83;;;;;;;;;;4984022;28;20053;-84
2022/01/31 07:18:04;;;;;;;9.93;1.80;;;;;;;;;;4990805;28;20050;-83
2022/01/31 07:20:40;;;;;;;11.63;1.65;;;;;;;;;;5007570;28;20042;-84
2022/01/31 07:23:16;;;;;;;16.23;2.75;;;;;;;;;;4990943;28;20041;-85
2022/01/31 07:25:42;;;;;;;9.82;1.65;;;;;;;;;;4988388;28;20104;-84
2022/01/31 07:28:12;;;;;;;13.75;2.10;;;;;;;;;;4984244;28;20517;-84
2022/01/31 07:30:40;;;;;;;9.95;1.90;;;;;;;;;;5006956;28;20405;-84
2022/01/31 07:33:06;;;;;;;13.38;2.72;;;;;;;;;;4995190;28;20045;-84
2022/01/31 07:35:40;;;;;;;12.60;2.30;;;;;;;;;;4999421;28;20046;-84
2022/01/31 07:38:07;;;;;;;12.38;2.22;;;;;;;;;;4995875;28;20070;-84
2022/01/31 07:40:33;;;;;;;16.15;2.58;;;;;;;;;;4996886;28;20504;-85
2022/01/31 07:42:59;;;;;;;14.68;2.85;;;;;;;;;;4995960;28;20033;-84
2022/01/31 07:45:26;;;;;;;10.55;2.17;;;;;;;;;;5003233;28;20125;-84
2022/01/31 07:47:52;;;;;;;12.50;2.38;;;;;;;;;;5009562;28;20088;-84
2022/01/31 07:50:19;;;;;;;14.95;2.92;;;;;;;;;;5000424;28;20046;-85
2022/01/31 07:52:45;;;;;;;13.82;2.15;;;;;;;;;;4987816;28;20544;-85
2022/01/31 07:55:12;;;;;;;15.13;2.50;;;;;;;;;;5006425;28;20041;-84
2022/01/31 07:57:40;;;;;;;19.35;2.58;;;;;;;;;;4988806;28;20580;-84
2022/01/31 08:00:07;;;;;;;15.60;2.72;;;;;;;;;;4985477;28;20543;-83
2022/01/31 08:02:33;;;;;;;11.35;2.15;;;;;;;;;;4992998;28;20045;-83
2022/01/31 08:05:00;;;;;;;10.15;2.30;;;;;;;;;;4979356;28;20042;-84
2022/01/31 08:07:26;;;;;;;10.05;1.85;;;;;;;;;;4986840;28;20052;-83
2022/01/31 08:09:52;;;;;;;11.25;2.30;;;;;;;;;;4994806;28;20045;-83
2022/01/31 08:12:18;;;;;;;12.85;2.00;;;;;;;;;;4972450;28;20379;-83
2022/01/31 08:14:47;;;;;;;13.43;2.40;;;;;;;;;;5009960;28;20674;-83
2022/01/31 08:17:13;;;;;;;13.00;2.33;;;;;;;;;;5004916;28;20049;-82
2022/01/31 08:19:39;;;;;;;13.07;2.70;;;;;;;;;;5010269;28;20050;-83
2022/01/31 08:22:06;;;;;;;12.50;2.40;;;;;;;;;;4986814;28;20077;-83
2022/01/31 08:24:32;;;;;;;10.18;2.45;;;;;;;;;;5010111;28;20039;-84
2022/01/31 08:27:00;;;;;;;12.50;2.22;;;;;;;;;;4982565;28;20034;-83
2022/01/31 08:29:31;;;;;;;14.38;2.75;;;;;;;;;;5004880;28;20045;-84
2022/01/31 08:32:00;;;;;;;13.65;2.05;;;;;;;;;;5009164;28;20084;-84
2022/01/31 08:35:47;;;;;;;9.82;2.05;;;;;;;;;;4993788;28;20069;-84
2022/01/31 08:37:15;;;;;;;9.63;2.35;;;;;;;;;;5010014;28;20096;-84
2022/01/31 08:39:42;;;;;;;13.07;2.50;;;;;;;;;;4994266;28;20064;-83
2022/01/31 08:42:08;;;;;;;12.45;2.65;;;;;;;;;;5009879;28;20525;-85
2022/01/31 08:44:34;;;;;;;14.80;2.10;;;;;;;;;;4991001;28;20044;-84
2022/01/31 08:47:01;;;;;;;12.63;2.20;;;;;;;;;;4997994;28;20045;-83
2022/01/31 08:49:27;;;;;;;11.20;2.70;;;;;;;;;;4999876;28;21206;-83
2022/01/31 08:51:54;;;;;;;12.07;2.47;;;;;;;;;;4996164;28;20046;-84
2022/01/31 08:54:21;;;;;;;13.10;2.55;;;;;;;;;;4987241;28;20052;-83
2022/01/31 08:56:48;;;;;;;11.05;2.65;;;;;;;;;;4994320;28;20038;-83
2022/01/31 08:59:18;;;;;;;13.93;2.40;;;;;;;;;;5013655;28;20057;-83
2022/01/31 09:02:02;;;;;;;11.63;2.80;;;;;;;;;;4993604;28;20466;-84
2022/01/31 09:04:47;;;;;;;;;;;;;;;;;;5006304;28;20073;-84
2022/01/31 09:07:15;;;;;;;12.70;2.40;;;;;;;;;;5010412;28;19947;-84
2022/01/31 09:09:42;;;;;;;15.32;3.10;;;;;;;;;;5009517;28;20489;-84
2022/01/31 09:12:15;;;;;;;12.88;2.60;;;;;;;;;;4992253;28;20061;-84
2022/01/31 09:14:42;;;;;;;10.80;2.78;;;;;;;;;;5005294;28;20046;-84
2022/01/31 09:17:08;;;;;;;13.30;2.80;;;;;;;;;;5030741;28;20042;-85
2022/01/31 09:19:34;;;;;;;11.32;2.50;;;;;;;;;;5010792;28;20493;-84
2022/01/31 09:22:03;;;;;;;14.02;2.33;;;;;;;;;;5009155;28;20076;-87
2022/01/31 09:24:45;;;;;;;12.95;2.60;;;;;;;;;;4995467;28;20077;-91
2022/01/31 09:27:11;;;;;;;16.90;2.40;;;;;;;;;;4994987;28;20029;-85
2022/01/31 09:30:02;;;;;;;9.10;2.22;;;;;;;;;;4995527;28;20569;-88
2022/01/31 09:32:31;;;;;;;10.40;2.15;;;;;;;;;;5013110;28;20048;-84
2022/01/31 09:35:00;;;;;;;9.43;2.05;;;;;;;;;;5013434;28;20037;-87
2022/01/31 09:37:41;;;;;;;12.75;2.20;;;;;;;;;;5015779;28;20487;-86
2022/01/31 09:40:27;;;;;;;16.23;2.55;;;;;;;;;;5002345;28;20068;-86
2022/01/31 09:52:17;;;;;;;13.57;2.78;;;;;;;;;;5030632;28;20136;-87
2022/01/31 09:55:12;;;;;;;14.93;2.40;;;;;;;;;;5010297;28;20038;-89
2022/01/31 09:58:07;;;;;;;17.38;2.40;;;;;;;;;;5023468;28;20049;-87
2022/01/31 10:01:11;;;;;;;11.85;2.55;;;;;;;;;;4979134;28;20137;-87
2022/01/31 10:03:53;;;;;;;15.82;2.75;;;;;;;;;;4971972;28;20046;-86
2022/01/31 10:06:32;;;;;;;10.50;1.70;;;;;;;;;;4971705;28;20042;-92
2022/01/31 10:09:30;;;;;;;14.15;1.75;;;;;;;;;;4957288;28;20568;-85
2022/01/31 10:18:45;;;;;;;10.73;1.85;;;;;;;;;;4971852;28;20047;-87
2022/01/31 10:21:53;;;;;;;8.60;1.73;;;;;;;;;;4959813;28;20613;-85
2022/01/31 10:24:36;;;;;;;6.18;1.58;;;;;;;;;;4954607;28;20113;-87
2022/01/31 10:27:22;;;;;;;7.68;1.88;;;;;;;;;;4963090;28;20047;-86
2022/01/31 10:30:06;;;;;;;14.02;2.47;;;;;;;;;;4967828;28;20051;-89
2022/01/31 10:32:39;;;;;;;7.38;1.90;;;;;;;;;;4926236;28;20050;-88
2022/01/31 10:35:29;;;;;;;11.35;2.13;;;;;;;;;;4972479;28;20580;-91
2022/01/31 10:38:05;;;;;;;7.88;1.77;;;;;;;;;;4975082;28;20152;-89
2022/01/31 10:52:19;;;;;;;15.88;2.40;;;;;;;;;;4999303;28;20046;-88
2022/01/31 10:54:50;;;;;;;12.40;2.03;;;;;;;;;;5001582;28;20120;-87
2022/01/31 10:57:27;;;;;;;12.43;2.75;;;;;;;;;;5013542;28;20050;-88
2022/01/31 11:00:25;;;;;;;13.45;2.60;;;;;;;;;;5007561;28;20122;-92
2022/01/31 11:06:19;;;;;;;6.75;2.10;;;;;;;;;;5003702;28;20029;-87
2022/01/31 11:09:02;;;;;;;10.45;2.25;;;;;;;;;;4984253;28;20514;-90
2022/01/31 11:11:29;;;;;;;12.80;1.80;;;;;;;;;;4992481;28;20049;-90
2022/01/31 11:13:59;;;;;;;10.77;1.85;;;;;;;;;;5005965;28;20046;-88
2022/01/31 11:16:30;;;;;;;13.52;2.35;;;;;;;;;;4969168;28;20488;-87
2022/01/31 11:19:32;;;;;;;10.43;1.70;;;;;;;;;;4987848;28;20064;-88
2022/01/31 11:22:05;;;;;;;7.80;1.98;;;;;;;;;;5012324;28;20225;-88
2022/01/31 11:24:52;;;;;;;10.00;2.28;;;;;;;;;;4992408;28;20034;-91
2022/01/31 11:27:29;;;;;;;11.20;1.90;;;;;;;;;;4964774;28;20125;-87
2022/01/31 11:29:55;;;;;;;14.70;2.38;;;;;;;;;;4972780;28;20046;-91
2022/01/31 11:32:26;;;;;;;9.70;2.28;;;;;;;;;;4999414;28;20477;-90
2022/01/31 11:34:52;;;;;;;13.35;2.50;;;;;;;;;;4990496;28;20038;-88
2022/01/31 11:37:25;;;;;;;11.20;3.13;;;;;;;;;;4997075;28;20099;-87
2022/01/31 11:39:57;;;;;;;13.25;2.40;;;;;;;;;;4994617;28;20139;-87
2022/01/31 11:42:24;;;;;;;12.52;3.10;;;;;;;;;;4991191;28;20124;-88
2022/01/31 11:44:54;;;;;;;12.25;2.50;;;;;;;;;;4974546;28;20624;-87
2022/01/31 11:47:22;;;;;;;14.40;3.20;;;;;;;;;;4985872;28;20038;-90
2022/01/31 11:49:50;;;;;;;13.77;2.58;;;;;;;;;;4984128;28;20441;-90
2022/01/31 11:52:17;;;;;;;16.70;2.58;;;;;;;;;;4978846;28;20466;-89
2022/01/31 11:54:46;;;;;;;13.57;2.47;;;;;;;;;;4980488;28;20038;-88
2022/01/31 11:57:17;;;;;;;17.98;3.08;;;;;;;;;;4990184;28;20081;-90
2022/01/31 11:59:44;;;;;;;14.93;2.88;;;;;;;;;;4990287;28;20443;-87
2022/01/31 12:02:14;;;;;;;13.57;3.55;;;;;;;;;;4988129;28;20042;-89
2022/01/31 12:04:44;;;;;;;10.80;2.53;;;;;;;;;;4991446;28;20038;-88
2022/01/31 12:07:36;;;;;;;13.05;2.63;;;;;;;;;;4976290;28;20046;-87
2022/01/31 12:10:03;;;;;;;19.48;3.15;;;;;;;;;;4984570;28;20042;-90
2022/01/31 12:12:38;;;;;;;10.93;2.40;;;;;;;;;;4997323;28;20052;-90
2022/01/31 12:15:31;;;;;;;16.88;2.75;;;;;;;;;;4999629;28;20038;-90
2022/01/31 12:18:25;;;;;;;14.00;3.13;;;;;;;;;;5000734;28;20046;-85
2022/01/31 12:23:41;;;;;;;12.30;2.35;;;;;;;;;;5032245;28;20499;-88
2022/01/31 12:26:26;;;;;;;14.65;3.15;;;;;;;;;;5012703;28;20052;-86
2022/01/31 12:29:09;;;;;;;13.30;2.72;;;;;;;;;;4998331;28;20056;-87
2022/01/31 12:31:35;;;;;;;19.63;4.32;;;;;;;;;;4998588;28;20033;-88
2022/01/31 12:34:02;;;;;;;12.18;2.92;;;;;;;;;;4996870;28;20034;-90
2022/01/31 12:36:37;;;;;;;15.50;3.40;;;;;;;;;;5008038;28;20095;-86
2022/01/31 12:39:05;;;;;;;14.82;3.22;;;;;;;;;;5009820;28;20081;-90
2022/01/31 12:41:32;;;;;;;11.50;2.50;;;;;;;;;;4995250;28;20033;-92
2022/01/31 12:44:17;;;;;;;16.08;3.22;;;;;;;;;;5015391;28;20489;-91
2022/01/31 12:46:50;;;;;;;16.77;3.33;;;;;;;;;;4995121;28;20034;-94
2022/01/31 12:49:17;;;;;;;18.02;3.92;;;;;;;;;;4998583;28;20113;-88
2022/01/31 12:51:56;;;;;;;15.38;3.13;;;;;;;;;;4995493;28;20049;-92
2022/01/31 12:54:23;;;;;;;17.15;3.03;;;;;;;;;;4998609;28;20045;-93
2022/01/31 12:56:49;;;;;;;15.48;2.60;;;;;;;;;;4997620;28;20045;-92
2022/01/31 12:59:17;;;;;;;17.42;3.22;;;;;;;;;;4998999;28;20079;-91
2022/01/31 13:01:47;;;;;;;12.50;2.50;;;;;;;;;;4997020;28;20098;-92
2022/01/31 13:04:21;;;;;;;22.05;3.10;;;;;;;;;;5027027;28;20042;-87
2022/01/31 13:06:48;;;;;;;12.75;3.10;;;;;;;;;;4995451;28;20037;-91
2022/01/31 13:09:22;;;;;;;17.05;3.08;;;;;;;;;;4991881;28;20034;-90
2022/01/31 13:11:50;;;;;;;16.30;3.05;;;;;;;;;;5005646;28;20553;-88
2022/01/31 13:14:20;;;;;;;18.50;2.92;;;;;;;;;;5008254;28;20038;-92
2022/01/31 13:16:58;;;;;;;15.75;2.92;;;;;;;;;;5010162;28;20588;-90
2022/01/31 13:19:25;;;;;;;16.60;3.95;;;;;;;;;;5002547;28;20048;-92
2022/01/31 13:21:52;;;;;;;18.98;3.03;;;;;;;;;;5005447;28;20037;-90
2022/01/31 13:24:20;;;;;;;10.57;3.20;;;;;;;;;;5003679;28;20164;-91
2022/01/31 13:26:47;;;;;;;16.90;3.28;;;;;;;;;;5003024;28;20504;-85
2022/01/31 13:29:25;;;;;;;14.50;2.55;;;;;;;;;;5010462;28;20044;-85
2022/01/31 13:31:51;;;;;;;11.70;3.63;;;;;;;;;;5008981;28;20418;-90
2022/01/31 13:34:40;;;;;;;12.75;3.08;;;;;;;;;;5010618;28;20141;-87
2022/01/31 13:37:26;;;;;;;17.83;3.80;;;;;;;;;;4983981;28;20053;-86
2022/01/31 13:39:56;;;;;;;14.77;2.70;;;;;;;;;;4983246;28;20584;-89
2022/01/31 13:42:25;;;;;;;18.83;4.07;;;;;;;;;;5022467;28;20053;-86
2022/01/31 13:44:54;;;;;;;23.00;4.43;;;;;;;;;;4996203;28;20072;-85
2022/01/31 13:47:42;;;;;;;16.13;3.45;;;;;;;;;;4992607;28;20064;-88
2022/01/31 13:50:35;;;;;;;16.73;3.38;;;;;;;;;;4996291;28;20040;-88
2022/01/31 13:53:01;;;;;;;19.73;3.58;;;;;;;;;;4986687;28;20053;-88
2022/01/31 13:55:28;;;;;;;23.95;4.30;;;;;;;;;;4995545;28;20343;-88
2022/01/31 13:57:55;;;;;;;21.23;4.32;;;;;;;;;;5009730;28;20493;-84
2022/01/31 14:00:23;;;;;;;19.80;4.10;;;;;;;;;;5005274;28;20041;-86
2022/01/31 14:03:06;;;;;;;18.63;4.43;;;;;;;;;;5002647;28;20045;-86
2022/01/31 14:05:35;;;;;;;19.33;3.78;;;;;;;;;;5004734;28;20037;-87
2022/01/31 14:08:14;;;;;;;15.52;3.75;;;;;;;;;;4999962;28;20164;-88
2022/01/31 14:10:45;;;;;;;21.95;4.05;;;;;;;;;;4987563;28;20528;-87
2022/01/31 14:13:12;;;;;;;19.95;3.58;;;;;;;;;;5006000;28;20053;-85
2022/01/31 14:15:51;;;;;;;15.98;3.50;;;;;;;;;;5012966;28;20053;-89
2022/01/31 14:18:19;;;;;;;23.50;4.05;;;;;;;;;;5005314;28;20037;-93
2022/01/31 14:20:50;;;;;;;16.20;3.55;;;;;;;;;;5009908;28;20217;-92
2022/01/31 14:23:20;;;;;;;11.75;3.20;;;;;;;;;;5009942;28;20030;-91
2022/01/31 14:25:52;;;;;;;11.05;2.60;;;;;;;;;;4999142;28;20038;-89
2022/01/31 14:28:38;;;;;;;17.92;3.17;;;;;;;;;;5006890;28;20033;-89
2022/01/31 14:31:05;;;;;;;16.13;3.00;;;;;;;;;;5004572;28;20588;-88
2022/01/31 14:33:36;;;;;;;15.60;3.17;;;;;;;;;;5000647;28;20493;-91
2022/01/31 14:36:07;;;;;;;12.18;3.13;;;;;;;;;;4994466;28;20042;-86
2022/01/31 14:38:44;;;;;;;15.27;3.58;;;;;;;;;;4993529;28;20515;-89
2022/01/31 14:49:26;;;;;;;8.85;2.45;;;;;;;;;;4976350;28;20048;-87
2022/01/31 14:51:52;;;;;;;8.65;2.15;;;;;;;;;;5005545;28;20076;-87
2022/01/31 14:54:19;;;;;;;11.77;1.92;;;;;;;;;;4997132;28;20148;-87
2022/01/31 14:56:46;;;;;;;10.63;2.55;;;;;;;;;;5010798;28;20133;-88
2022/01/31 14:59:12;;;;;;;9.38;2.70;;;;;;;;;;4995694;28;20048;-88
2022/01/31 15:01:39;;;;;;;15.13;3.25;;;;;;;;;;4996731;28;20049;-90
2022/01/31 15:04:16;;;;;;;12.93;3.25;;;;;;;;;;4998441;28;20512;-91
2022/01/31 15:06:42;;;;;;;16.33;3.80;;;;;;;;;;4995785;28;20696;-89
2022/01/31 15:09:08;;;;;;;11.70;4.45;;;;;;;;;;4981564;28;20037;-89
2022/01/31 15:11:34;;;;;;;15.10;5.32;;;;;;;;;;5007483;28;20048;-90
2022/01/31 15:14:00;;;;;;;13.45;5.45;;;;;;;;;;4991293;28;20096;-95
2022/01/31 15:16:29;;;;;;;13.50;6.45;;;;;;;;;;4993642;28;20049;-93
2022/01/31 15:18:57;;;;;;;19.15;7.40;;;;;;;;;;4992515;28;20037;-93
2022/01/31 15:21:27;;;;;;;17.65;7.43;;;;;;;;;;5007116;28;20041;-85
2022/01/31 15:23:54;;;;;;;12.38;6.93;;;;;;;;;;4993028;28;20209;-92
2022/01/31 15:26:21;;;;;;;14.90;7.60;;;;;;;;;;4990481;28;20041;-91
2022/01/31 15:28:48;;;;;;;15.50;7.53;;;;;;;;;;5010365;28;20175;-87